createdAt,value
2022-11-28T01:50:38.467Z,3.72
2022-11-28T03:07:01.069Z,1.35
2022-11-28T03:13:09.561Z,6.40
2022-11-28T03:18:27.391Z,2.17
2022-11-28T03:23:54.044Z,2.25
2022-11-28T03:29:16.536Z,1.63
2022-11-28T03:34:23.281Z,1.30
2022-11-28T03:39:32.309Z,1.58
2022-11-28T03:44:50.501Z,1.60
2022-11-28T03:49:56.988Z,1.00
2022-11-28T03:55:16.609Z,1.60
2022-11-28T04:00:20.323Z,2.78
2022-11-28T04:05:38.920Z,3.53
2022-11-28T04:10:57.059Z,2.80
2022-11-28T04:16:13.051Z,1.23
2022-11-28T04:21:23.111Z,1.95
2022-11-28T04:26:32.638Z,1.30
2022-11-28T04:31:36.804Z,0.87
2022-11-28T04:36:41.360Z,1.02
2022-11-28T04:42:14.781Z,1.10
2022-11-28T04:47:19.103Z,0.90
2022-11-28T04:52:52.343Z,0.95
2022-11-28T04:58:03.904Z,1.33
2022-11-28T05:03:08.927Z,1.58
2022-11-28T05:08:12.592Z,1.35
2022-11-28T05:13:15.817Z,4.70
2022-11-28T05:18:28.136Z,2.45
2022-11-28T05:23:30.935Z,2.13
2022-11-28T05:28:34.734Z,4.55
2022-11-28T05:33:37.174Z,2.75
2022-11-28T05:38:42.610Z,2.50
2022-11-28T05:43:45.634Z,1.75
2022-11-28T05:48:48.901Z,1.50
2022-11-28T05:53:53.162Z,2.97
2022-11-28T05:58:56.872Z,3.65
2022-11-28T06:04:04.753Z,1.75
2022-11-28T06:09:07.758Z,2.22
2022-11-28T06:14:13.477Z,1.73
2022-11-28T06:19:25.468Z,1.77
2022-11-28T06:24:44.490Z,1.17
2022-11-28T06:29:48.905Z,0.70
2022-11-28T06:35:06.814Z,1.30
2022-11-28T06:40:24.601Z,2.58
2022-11-28T06:45:30.620Z,5.47
2022-11-28T06:50:42.070Z,4.78
2022-11-28T06:55:54.564Z,3.88
2022-11-28T07:01:19.113Z,7.85
2022-11-28T07:06:24.540Z,4.47
2022-11-28T07:11:39.039Z,4.88
2022-11-28T07:16:43.357Z,3.03
2022-11-28T07:22:03.308Z,2.83
2022-11-28T07:27:48.078Z,3.25
2022-11-28T07:33:13.197Z,1.50
2022-11-28T07:38:59.026Z,2.95
2022-11-28T07:44:06.826Z,1.50
2022-11-28T07:49:15.441Z,1.70
2022-11-28T07:54:24.254Z,1.10
2022-11-28T08:05:09.012Z,0.90
2022-11-28T08:10:30.966Z,1.77
2022-11-28T08:15:51.350Z,1.48
2022-11-28T08:21:07.989Z,2.15
2022-11-28T08:27:32.081Z,0.70
2022-11-28T08:33:59.628Z,0.50
2022-11-28T08:39:30.960Z,1.00
2022-11-28T08:44:58.745Z,1.40
2022-11-28T09:20:25.361Z,1.42
2022-11-28T09:25:32.168Z,0.90
2022-11-28T09:31:09.158Z,1.77
2022-11-28T09:36:23.865Z,1.20
2022-11-28T09:42:18.236Z,1.83
2022-11-28T09:48:41.740Z,2.47
2022-11-28T09:54:41.028Z,2.60
2022-11-28T10:05:43.745Z,2.17
2022-11-28T10:11:28.219Z,1.10
2022-11-28T10:17:34.849Z,2.15
2022-11-28T10:28:51.735Z,13.10
2022-11-28T10:34:20.414Z,2.65
2022-11-28T10:39:28.449Z,1.90
2022-11-28T10:45:17.879Z,2.05
2022-11-28T10:51:03.742Z,2.38
2022-11-28T10:56:59.434Z,1.08
2022-11-28T11:02:55.684Z,0.90
2022-11-28T11:08:24.949Z,1.15
2022-11-28T11:13:37.941Z,1.98
2022-11-28T11:18:57.450Z,1.45
2022-11-28T11:24:17.866Z,3.83
2022-11-28T11:29:37.933Z,4.05
2022-11-28T11:34:48.000Z,4.20
2022-11-28T11:39:56.261Z,3.63
2022-11-28T11:45:32.302Z,3.10
2022-11-28T11:50:38.481Z,3.90
2022-11-28T11:55:53.250Z,4.68
2022-11-28T12:01:00.676Z,2.75
2022-11-28T12:06:23.710Z,1.83
2022-11-28T12:11:39.251Z,3.83
2022-11-28T12:17:46.715Z,2.03
2022-11-28T12:23:31.288Z,4.18
2022-11-28T12:28:54.765Z,2.10
2022-11-28T12:34:33.503Z,3.30
2022-11-28T12:40:06.972Z,1.70
2022-11-28T12:46:01.918Z,1.70
2022-11-28T12:51:57.171Z,0.75
2022-11-28T12:58:05.457Z,1.27
2022-11-28T13:03:46.969Z,1.25
2022-11-28T13:09:27.966Z,1.60
2022-11-28T13:14:57.725Z,2.75
2022-11-28T13:20:37.316Z,2.78
2022-11-28T13:26:16.034Z,1.98
2022-11-28T13:31:29.145Z,1.80
2022-11-28T13:50:00.225Z,1.67
2022-11-28T13:56:05.307Z,4.28
2022-11-28T14:01:33.297Z,2.90
2022-11-28T14:08:08.866Z,2.63
2022-11-28T14:20:01.767Z,2.25
2022-11-28T14:25:53.756Z,2.70
2022-11-28T14:37:49.610Z,4.60
2022-11-28T14:43:26.039Z,2.35
2022-11-28T14:48:32.277Z,2.22
2022-11-28T14:54:06.550Z,5.85
2022-11-28T14:59:25.823Z,2.58
2022-11-28T15:10:58.240Z,2.03
2022-11-28T15:16:49.676Z,4.00
2022-11-28T15:27:50.462Z,2.30
2022-11-28T15:33:04.034Z,3.22
2022-11-28T15:38:26.544Z,2.35
2022-11-28T15:44:02.776Z,2.40
2022-11-28T15:55:05.291Z,3.28
2022-11-28T16:00:31.646Z,3.83
2022-11-28T16:05:40.181Z,4.40
2022-11-28T16:10:46.503Z,2.25
2022-11-28T16:15:52.932Z,3.22
2022-11-28T16:21:04.174Z,1.63
2022-11-28T16:26:36.796Z,2.97
2022-11-28T16:31:41.364Z,2.47
2022-11-28T16:36:49.954Z,2.50
2022-11-28T16:42:17.551Z,4.40
2022-11-28T16:53:08.606Z,2.85
2022-11-28T16:58:42.451Z,3.40
2022-11-28T17:03:58.515Z,2.67
2022-11-28T17:09:04.969Z,2.83
2022-11-28T17:14:16.378Z,1.85
2022-11-28T17:19:20.859Z,2.47
2022-11-28T17:24:35.904Z,2.58
2022-11-28T17:29:42.946Z,3.40
2022-11-28T17:34:48.121Z,3.17
2022-11-28T17:56:56.649Z,2.75
2022-11-28T18:02:07.690Z,2.85
2022-11-28T18:07:21.429Z,5.53
2022-11-28T18:12:29.428Z,2.72
2022-11-28T18:17:46.098Z,2.53
2022-11-28T18:22:52.250Z,5.00
2022-11-28T18:28:06.003Z,6.75
2022-11-28T18:33:12.572Z,3.25
2022-11-28T18:38:32.791Z,3.30
2022-11-28T18:43:47.674Z,4.10
2022-11-28T18:48:58.766Z,2.47
2022-11-28T18:54:23.542Z,2.80
2022-11-28T18:59:35.423Z,2.90
2022-11-28T19:23:03.671Z,9.32
2022-11-28T19:34:19.567Z,4.43
2022-11-28T20:05:06.602Z,5.32
2022-11-28T20:11:31.366Z,10.00
2022-11-28T20:47:35.064Z,13.82
2022-11-28T20:53:53.617Z,10.13
2022-11-28T20:59:09.038Z,6.90
2022-11-28T21:16:22.411Z,7.97
2022-11-28T21:21:49.730Z,6.25
2022-11-28T21:27:36.909Z,6.45
2022-11-28T21:32:53.880Z,7.25
2022-11-28T21:43:20.380Z,7.35
2022-11-28T21:48:29.834Z,13.35
2022-11-28T21:53:43.611Z,7.35
2022-11-28T21:58:56.190Z,8.98
2022-11-28T22:04:27.775Z,8.68
2022-11-28T22:10:52.244Z,6.72
2022-11-28T22:41:57.043Z,8.38
2022-11-28T23:52:33.864Z,4.00
